createdAt,value
2022-10-01T00:00:13.516Z,11.41
2022-10-01T00:05:14.236Z,11.37
2022-10-01T00:10:13.583Z,11.3
2022-10-01T00:15:13.725Z,11.3
2022-10-01T00:20:14.472Z,11.32
2022-10-01T00:25:14.746Z,11.3
2022-10-01T00:30:13.294Z,11.26
2022-10-01T00:35:14.300Z,11.23
2022-10-01T00:40:13.276Z,11.24
2022-10-01T00:45:15.254Z,11.24
2022-10-01T00:50:18.505Z,11.24
2022-10-01T00:55:15.711Z,11.26
2022-10-01T01:00:16.498Z,11.24
2022-10-01T01:05:13.489Z,11.26
2022-10-01T01:10:13.268Z,11.22
2022-10-01T01:15:18.671Z,11.2
2022-10-01T01:20:22.411Z,11.23
2022-10-01T01:25:17.814Z,11.23
2022-10-01T01:30:14.993Z,11.23
2022-10-01T01:35:16.178Z,11.23
2022-10-01T01:40:14.907Z,11.24
2022-10-01T01:45:16.503Z,11.24
2022-10-01T01:50:15.153Z,11.23
2022-10-01T01:55:13.705Z,11.25
2022-10-01T02:00:14.518Z,11.27
2022-10-01T02:05:14.874Z,11.26
2022-10-01T02:10:20.313Z,11.27
2022-10-01T02:15:18.003Z,11.29
2022-10-01T02:20:18.034Z,11.31
2022-10-01T02:25:14.233Z,11.33
2022-10-01T02:30:15.028Z,11.35
2022-10-01T02:35:14.369Z,11.38
2022-10-01T02:40:15.703Z,11.42
2022-10-01T02:45:14.810Z,11.44
2022-10-01T02:50:13.841Z,11.48
2022-10-01T02:55:14.091Z,11.52
2022-10-01T03:00:14.202Z,11.57
2022-10-01T03:05:15.873Z,11.61
2022-10-01T03:10:14.718Z,11.65
2022-10-01T03:15:13.183Z,11.71
2022-10-01T03:20:13.224Z,11.72
2022-10-01T03:25:13.553Z,11.78
2022-10-01T03:30:14.631Z,11.82
2022-10-01T03:35:13.220Z,11.88
2022-10-01T03:40:13.188Z,11.92
2022-10-01T03:45:13.147Z,11.94
2022-10-01T03:50:13.583Z,11.94
2022-10-01T03:55:14.344Z,11.98
2022-10-01T04:00:13.870Z,12.01
2022-10-01T04:05:16.320Z,12.02
2022-10-01T04:10:13.615Z,11.98
2022-10-01T04:15:13.803Z,11.92
2022-10-01T04:20:13.173Z,11.86
2022-10-01T04:25:14.185Z,11.8
2022-10-01T04:30:13.920Z,11.74
2022-10-01T04:35:13.072Z,11.69
2022-10-01T04:40:13.627Z,11.64
2022-10-01T04:45:14.679Z,11.59
2022-10-01T04:50:13.281Z,11.56
2022-10-01T04:55:12.994Z,11.54
2022-10-01T05:00:14.289Z,11.53
2022-10-01T05:05:12.959Z,11.49
2022-10-01T05:10:15.886Z,11.43
2022-10-01T05:15:13.295Z,11.35
2022-10-01T05:20:18.813Z,11.3
2022-10-01T05:25:12.967Z,11.28
2022-10-01T05:30:16.924Z,11.24
2022-10-01T05:35:13.512Z,11.22
2022-10-01T05:40:13.356Z,11.22
2022-10-01T05:45:13.907Z,11.21
2022-10-01T05:50:17.166Z,11.19
2022-10-01T05:55:15.108Z,11.15
2022-10-01T06:00:13.440Z,11.14
2022-10-01T06:05:13.481Z,11.16
2022-10-01T06:10:13.324Z,11.16
2022-10-01T06:15:13.646Z,11.15
2022-10-01T06:20:13.144Z,11.17
2022-10-01T06:25:14.012Z,11.24
2022-10-01T06:30:13.859Z,11.3
2022-10-01T06:35:12.989Z,11.36
2022-10-01T06:40:13.430Z,11.42
2022-10-01T06:45:13.415Z,11.47
2022-10-01T06:50:12.915Z,11.58
2022-10-01T06:55:16.505Z,11.77
2022-10-01T07:00:13.469Z,11.9
2022-10-01T07:05:13.529Z,11.98
2022-10-01T07:10:13.781Z,12.06
2022-10-01T07:15:13.453Z,12.15
2022-10-01T07:20:14.600Z,12.28
2022-10-01T07:25:13.778Z,12.43
2022-10-01T07:30:13.320Z,12.66
2022-10-01T07:35:14.469Z,12.99
2022-10-01T07:40:16.357Z,13.32
2022-10-01T07:45:13.428Z,13.47
2022-10-01T07:50:14.533Z,13.47
2022-10-01T07:55:14.001Z,13.42
2022-10-01T08:00:13.325Z,13.35
2022-10-01T08:05:22.694Z,13.29
2022-10-01T08:10:12.956Z,13.45
2022-10-01T08:15:13.307Z,14.03
2022-10-01T08:20:14.666Z,14.49
2022-10-01T08:25:13.215Z,14.9
2022-10-01T08:30:13.316Z,15.21
2022-10-01T08:35:12.968Z,15.18
2022-10-01T08:40:14.012Z,14.88
2022-10-01T08:45:15.561Z,14.68
2022-10-01T08:50:17.868Z,14.91
2022-10-01T08:55:14.978Z,15.03
2022-10-01T09:00:15.762Z,14.88
2022-10-01T09:05:20.641Z,14.65
2022-10-01T09:10:20.790Z,14.63
2022-10-01T09:15:20.724Z,14.72
2022-10-01T09:20:15.639Z,14.82
2022-10-01T09:25:20.926Z,15.21
2022-10-01T09:30:15.859Z,15.35
2022-10-01T09:35:20.726Z,15.31
2022-10-01T09:40:19.021Z,15.24
2022-10-01T09:45:15.064Z,15.25
2022-10-01T09:50:17.383Z,15.48
2022-10-01T09:55:23.488Z,16.05
2022-10-01T10:00:14.953Z,16.42
2022-10-01T10:05:13.453Z,16.63
2022-10-01T10:10:25.320Z,16.83
2022-10-01T10:15:19.174Z,16.72
2022-10-01T10:20:23.230Z,16.88
2022-10-01T10:25:23.768Z,17.06
2022-10-01T10:30:17.841Z,17.33
2022-10-01T10:35:15.106Z,17.61
2022-10-01T10:40:23.573Z,17.97
2022-10-01T10:45:20.254Z,18.05
2022-10-01T10:50:25.478Z,18.06
2022-10-01T10:55:25.385Z,17.93
2022-10-01T11:00:16.678Z,17.87
2022-10-01T11:05:21.261Z,17.92
2022-10-01T11:10:23.846Z,17.95
2022-10-01T11:15:19.538Z,17.37
2022-10-01T11:20:22.058Z,17.42
2022-10-01T11:25:23.168Z,17.61
2022-10-01T11:30:14.684Z,17.72
2022-10-01T11:35:25.924Z,17.64
2022-10-01T11:40:18.921Z,17.5
2022-10-01T11:45:18.384Z,17.38
2022-10-01T11:50:18.715Z,17.46
2022-10-01T11:55:29.221Z,17.51
2022-10-01T12:00:14.308Z,17.51
2022-10-01T12:05:17.134Z,17.44
2022-10-01T12:10:18.772Z,17.38
2022-10-01T12:15:14.570Z,17.5
2022-10-01T12:20:18.719Z,17.63
2022-10-01T12:25:14.841Z,17.64
2022-10-01T12:30:14.518Z,17.52
2022-10-01T12:35:20.233Z,17.6
2022-10-01T12:40:30.883Z,17.76
2022-10-01T12:45:19.336Z,17.84
2022-10-01T12:50:20.695Z,17.8
2022-10-01T12:55:21.542Z,18.01
2022-10-01T13:00:15.448Z,18.01
2022-10-01T13:05:23.429Z,18.19
2022-10-01T13:10:19.407Z,17.99
2022-10-01T13:15:15.863Z,18.05
2022-10-01T13:20:19.646Z,17.97
2022-10-01T13:25:22.272Z,18.02
2022-10-01T13:30:20.221Z,18.12
2022-10-01T13:35:23.663Z,18.07
2022-10-01T13:40:25.128Z,18.07
2022-10-01T13:45:23.253Z,18.06
2022-10-01T13:50:25.742Z,17.86
2022-10-01T13:55:27.710Z,17.78
2022-10-01T14:00:24.857Z,17.74
2022-10-01T14:05:26.542Z,17.82
2022-10-01T14:10:17.289Z,17.77
2022-10-01T14:15:32.587Z,17.69
2022-10-01T14:20:20.536Z,17.58
2022-10-01T14:25:26.891Z,17.48
2022-10-01T14:30:15.254Z,17.37
2022-10-01T14:35:26.617Z,17.39
2022-10-01T14:40:18.878Z,17.49
2022-10-01T14:45:22.216Z,17.57
2022-10-01T14:50:22.241Z,17.71
2022-10-01T14:55:17.826Z,17.7
2022-10-01T15:00:17.729Z,17.66
2022-10-01T15:05:23.941Z,17.59
2022-10-01T15:10:19.935Z,17.51
2022-10-01T15:15:19.113Z,17.49
2022-10-01T15:20:15.171Z,17.46
2022-10-01T15:25:19.302Z,17.43
2022-10-01T15:30:20.800Z,17.45
2022-10-01T15:35:16.585Z,17.44
2022-10-01T15:40:24.045Z,17.43
2022-10-01T15:45:25.843Z,17.4
2022-10-01T15:50:23.701Z,17.36
2022-10-01T15:55:16.616Z,17.33
2022-10-01T16:00:23.762Z,17.25
2022-10-01T16:05:19.177Z,17.17
2022-10-01T16:10:30.259Z,17.04
2022-10-01T16:15:27.044Z,16.92
2022-10-01T16:20:24.212Z,16.84
2022-10-01T16:25:26.943Z,16.76
2022-10-01T16:30:22.779Z,16.71
2022-10-01T16:35:25.937Z,16.65
2022-10-01T16:40:16.171Z,16.57
2022-10-01T16:45:17.481Z,16.51
2022-10-01T16:50:14.369Z,16.4
2022-10-01T16:55:14.984Z,16.21
2022-10-01T17:00:14.040Z,15.99
2022-10-01T17:05:17.741Z,15.82
2022-10-01T17:10:12.631Z,15.68
2022-10-01T17:15:15.801Z,15.56
2022-10-01T17:20:13.153Z,15.45
2022-10-01T17:25:17.564Z,15.34
2022-10-01T17:30:13.780Z,15.25
2022-10-01T17:35:14.320Z,15.15
2022-10-01T17:40:13.718Z,15.04
2022-10-01T17:45:14.323Z,14.91
2022-10-01T17:50:12.622Z,14.77
2022-10-01T17:55:12.960Z,14.6
2022-10-01T18:00:13.074Z,14.44
2022-10-01T18:05:14.585Z,14.26
2022-10-01T18:10:14.893Z,14.11
2022-10-01T18:15:13.544Z,13.97
2022-10-01T18:20:15.990Z,13.82
2022-10-01T18:25:13.789Z,13.71
2022-10-01T18:30:13.258Z,13.58
2022-10-01T18:35:20.757Z,13.46
2022-10-01T18:40:15.985Z,13.35
2022-10-01T18:45:17.549Z,13.25
2022-10-01T18:50:23.565Z,13.15
2022-10-01T18:55:31.203Z,13.08
2022-10-01T19:00:16.616Z,13
2022-10-01T19:05:29.359Z,12.94
2022-10-01T19:10:16.612Z,12.87
2022-10-01T19:15:18.110Z,12.83
2022-10-01T19:20:19.374Z,12.76
2022-10-01T19:25:18.260Z,12.7
2022-10-01T19:30:15.429Z,12.65
2022-10-01T19:35:17.362Z,12.61
2022-10-01T19:40:19.881Z,12.59
2022-10-01T19:45:20.190Z,12.56
2022-10-01T19:50:19.526Z,12.55
2022-10-01T19:55:17.244Z,12.52
2022-10-01T20:00:17.856Z,12.46
2022-10-01T20:05:14.342Z,12.41
2022-10-01T20:10:20.771Z,12.35
2022-10-01T20:15:19.685Z,12.28
2022-10-01T20:20:18.434Z,12.24
2022-10-01T20:25:21.618Z,12.19
2022-10-01T20:30:14.472Z,12.19
2022-10-01T20:35:23.193Z,12.16
2022-10-01T20:40:17.619Z,12.12
2022-10-01T20:45:17.842Z,12.09
2022-10-01T20:50:15.898Z,12.08
2022-10-01T20:55:15.932Z,12.05
2022-10-01T21:00:18.385Z,12.07
2022-10-01T21:05:17.649Z,12.12
2022-10-01T21:10:18.856Z,12.17
2022-10-01T21:15:15.839Z,12.22
2022-10-01T21:20:19.994Z,12.28
2022-10-01T21:25:17.632Z,12.33
2022-10-01T21:30:15.607Z,12.32
2022-10-01T21:35:19.214Z,12.3
2022-10-01T21:40:21.876Z,12.29
2022-10-01T21:45:23.661Z,12.27
2022-10-01T21:50:19.185Z,12.29
2022-10-01T21:55:33.334Z,12.31
2022-10-01T22:00:22.108Z,12.35
2022-10-01T22:05:21.524Z,12.57
2022-10-01T22:10:17.402Z,12.56
2022-10-01T22:15:18.642Z,12.51
2022-10-01T22:20:13.255Z,12.46
2022-10-01T22:25:13.494Z,12.47
2022-10-01T22:30:15.758Z,12.46
2022-10-01T22:35:17.455Z,12.44
2022-10-01T22:40:17.992Z,12.39
2022-10-01T22:45:16.514Z,12.35
2022-10-01T22:50:20.000Z,12.32
2022-10-01T22:55:20.558Z,12.28
2022-10-01T23:00:13.593Z,12.23
2022-10-01T23:05:15.982Z,12.17
2022-10-01T23:10:15.062Z,12.1
2022-10-01T23:15:17.908Z,12.06
2022-10-01T23:20:20.103Z,11.99
2022-10-01T23:25:18.904Z,11.91
2022-10-01T23:30:16.604Z,11.89
2022-10-01T23:35:16.715Z,11.87
2022-10-01T23:40:13.558Z,11.85
2022-10-01T23:45:25.000Z,11.88
2022-10-01T23:50:21.405Z,11.91
2022-10-01T23:55:28.863Z,12.03
